Time;durP1;ratioP1;P1;durP2;ratioP2;P2;SDS_P1;SDS_P2;PMS_P1;PMS_P2;Temp;Humidity;BMP_temperature;BMP_pressure;BME280_temperature;BME280_humidity;BME280_pressure;Samples;Min_cycle;Max_cycle;Signal;HPM_P1;HPM_P2
2023/04/28 00:00:16;;;;;;;12.07;7.00;;;;;;;14.56;38.82;101453.25;4984632;28;20031;-46
2023/04/28 00:02:41;;;;;;;12.65;6.97;;;;;;;14.57;38.76;101449.75;4985965;28;20043;-42
2023/04/28 00:05:07;;;;;;;14.07;6.68;;;;;;;14.42;39.03;101448.78;4982252;28;20022;-40
2023/04/28 00:07:33;;;;;;;11.55;7.05;;;;;;;14.41;38.52;101442.63;4988890;28;20050;-43
2023/04/28 00:09:58;;;;;;;11.68;6.80;;;;;;;14.46;38.82;101432.16;4985718;28;20093;-41
2023/04/28 00:12:24;;;;;;;12.88;6.65;;;;;;;14.65;38.23;101436.66;4994195;28;20057;-42
2023/04/28 00:14:49;;;;;;;12.82;7.00;;;;;;;14.12;39.00;101442.41;4983949;28;20394;-43
2023/04/28 00:17:14;;;;;;;11.50;6.70;;;;;;;14.32;38.86;101431.19;4982872;28;20117;-42
2023/04/28 00:19:40;;;;;;;13.02;6.95;;;;;;;14.45;39.00;101433.06;4992687;28;20030;-45
2023/04/28 00:22:05;;;;;;;11.20;6.55;;;;;;;14.25;39.66;101430.25;4988397;28;20138;-43
2023/04/28 00:24:32;;;;;;;13.55;6.72;;;;;;;14.39;39.24;101433.03;4989809;28;20044;-43
2023/04/28 00:26:58;;;;;;;11.82;6.97;;;;;;;14.55;39.95;101427.00;4983939;28;20393;-43
2023/04/28 00:29:23;;;;;;;13.82;7.18;;;;;;;14.19;39.88;101419.72;4986227;28;20062;-41
2023/04/28 00:31:48;;;;;;;14.95;7.20;;;;;;;14.28;39.86;101403.16;4984786;28;20049;-43
2023/04/28 00:34:14;;;;;;;14.75;6.97;;;;;;;14.47;39.87;101394.56;4984663;28;20054;-45
2023/04/28 00:36:39;;;;;;;12.50;7.18;;;;;;;13.94;40.47;101397.69;4989805;28;20034;-43
2023/04/28 00:39:04;;;;;;;12.50;7.07;;;;;;;14.41;39.27;101394.53;4985894;28;20043;-42
2023/04/28 00:41:30;;;;;;;11.98;7.00;;;;;;;14.49;39.44;101393.72;4988179;28;20041;-42
2023/04/28 00:43:55;;;;;;;14.63;7.38;;;;;;;14.61;39.20;101387.66;4984024;28;20128;-41
2023/04/28 00:46:29;;;;;;;14.35;6.90;;;;;;;14.63;39.47;101385.06;4987225;28;20050;-40
2023/04/28 00:48:54;;;;;;;11.85;7.10;;;;;;;14.44;40.10;101384.97;4983756;28;20030;-44
2023/04/28 00:51:20;;;;;;;15.48;7.07;;;;;;;14.55;39.49;101379.75;4985795;28;20030;-46
2023/04/28 00:53:46;;;;;;;12.18;7.22;;;;;;;14.59;39.54;101374.53;4987807;28;20517;-42
2023/04/28 00:56:12;;;;;;;12.65;6.50;;;;;;;14.59;39.57;101363.16;4986010;28;20046;-42
2023/04/28 00:58:37;;;;;;;12.25;6.85;;;;;;;14.14;40.32;101364.66;4989519;28;20022;-44
2023/04/28 01:01:08;;;;;;;12.65;7.18;;;;;;;14.04;40.21;101365.44;4986975;28;20112;-44
2023/04/28 01:03:36;;;;;;;13.48;7.82;;;;;;;14.52;39.85;101357.00;4989439;28;20094;-46
2023/04/28 01:06:03;;;;;;;13.88;7.65;;;;;;;14.30;40.42;101348.97;4985480;28;20066;-42
2023/04/28 01:08:30;;;;;;;11.65;6.95;;;;;;;14.12;40.37;101355.00;4988357;28;20061;-39
2023/04/28 01:10:56;;;;;;;13.13;6.85;;;;;;;14.57;39.55;101343.94;4983272;28;20493;-42
2023/04/28 01:13:21;;;;;;;13.05;7.30;;;;;;;14.25;40.33;101346.34;4986428;28;20030;-43
2023/04/28 01:15:46;;;;;;;16.70;8.00;;;;;;;14.32;40.20;101340.28;4986247;28;20030;-42
2023/04/28 01:18:12;;;;;;;16.63;7.47;;;;;;;14.35;40.15;101339.38;4983251;28;20760;-43
2023/04/28 01:20:38;;;;;;;12.68;7.43;;;;;;;14.12;40.30;101342.78;4987293;28;20125;-42
2023/04/28 01:23:03;;;;;;;12.30;7.18;;;;;;;14.05;40.86;101332.22;4985010;28;20456;-41
2023/04/28 01:25:28;;;;;;;14.27;7.80;;;;;;;13.81;40.88;101328.56;4988645;28;20050;-40
2023/04/28 01:27:54;;;;;;;12.80;7.30;;;;;;;13.82;41.18;101327.72;4984185;28;20034;-42
2023/04/28 01:30:19;;;;;;;13.65;7.25;;;;;;;14.32;40.72;101324.53;4988379;28;20052;-41
2023/04/28 01:32:45;;;;;;;13.70;6.97;;;;;;;14.17;40.74;101321.81;4987871;28;20050;-42
2023/04/28 01:35:10;;;;;;;14.07;7.65;;;;;;;14.47;40.20;101318.50;4983930;28;20055;-40
2023/04/28 01:37:35;;;;;;;13.73;7.68;;;;;;;14.24;40.55;101313.13;4987393;28;20073;-39
2023/04/28 01:40:01;;;;;;;12.88;7.25;;;;;;;14.35;40.54;101310.53;4984700;28;20046;-43
2023/04/28 01:42:26;;;;;;;15.57;8.00;;;;;;;13.93;41.21;101303.31;4986071;28;20143;-43
2023/04/28 01:44:51;;;;;;;15.75;8.00;;;;;;;13.81;41.55;101302.38;4981622;28;20113;-42
2023/04/28 01:47:17;;;;;;;15.68;7.43;;;;;;;13.84;42.20;101295.41;4984731;28;20443;-39
2023/04/28 01:49:42;;;;;;;13.80;7.18;;;;;;;14.32;40.64;101295.69;4984368;28;20035;-43
2023/04/28 01:52:07;;;;;;;14.82;7.70;;;;;;;14.19;40.91;101301.72;4980978;28;20031;-41
2023/04/28 01:54:33;;;;;;;13.95;7.25;;;;;;;14.30;40.73;101304.41;4984730;28;20027;-43
2023/04/28 01:56:58;;;;;;;14.40;8.00;;;;;;;14.26;40.63;101293.03;4981627;28;20031;-41
2023/04/28 01:59:23;;;;;;;15.75;8.02;;;;;;;13.94;40.93;101294.59;4984466;28;20023;-44
2023/04/28 02:01:49;;;;;;;17.15;7.90;;;;;;;13.94;41.40;101286.72;4984978;28;20465;-41
2023/04/28 02:04:14;;;;;;;14.23;7.82;;;;;;;13.69;41.68;101275.19;4980659;28;20042;-48
2023/04/28 02:06:39;;;;;;;15.60;8.18;;;;;;;13.77;41.57;101268.28;4984188;28;20042;-43
2023/04/28 02:09:05;;;;;;;14.10;7.68;;;;;;;13.91;41.17;101266.59;4981252;28;20035;-45
2023/04/28 02:11:30;;;;;;;13.52;7.93;;;;;;;13.67;42.32;101259.47;4985035;28;20030;-44
2023/04/28 02:13:55;;;;;;;13.73;7.75;;;;;;;13.93;41.78;101254.38;4984374;28;20049;-45
2023/04/28 02:16:21;;;;;;;15.30;7.80;;;;;;;13.66;41.75;101264.72;4990244;28;20128;-42
2023/04/28 02:18:46;;;;;;;14.35;8.05;;;;;;;13.80;41.44;101263.03;4989592;28;20031;-42
2023/04/28 02:21:12;;;;;;;15.55;8.10;;;;;;;14.09;41.45;101257.94;4955483;28;20928;-44
2023/04/28 02:23:38;;;;;;;13.25;7.40;;;;;;;14.17;41.26;101253.63;4969893;28;20069;-43
2023/04/28 02:26:04;;;;;;;16.00;7.82;;;;;;;13.99;41.43;101251.78;4981547;28;20037;-41
2023/04/28 02:28:30;;;;;;;15.80;8.10;;;;;;;13.82;41.62;101254.34;4987358;28;20030;-43
2023/04/28 02:31:09;;;;;;;13.43;7.93;;;;;;;13.86;41.85;101252.59;4981991;28;20511;-41
2023/04/28 02:33:36;;;;;;;14.35;7.95;;;;;;;13.72;41.91;101246.41;4983988;28;20038;-42
2023/04/28 02:36:03;;;;;;;14.25;7.93;;;;;;;13.54;42.50;101239.28;4981274;28;20038;-41
2023/04/28 02:38:28;;;;;;;13.43;7.95;;;;;;;13.91;42.00;101235.16;4984112;28;20517;-42
2023/04/28 02:41:01;;;;;;;17.30;8.00;;;;;;;14.13;41.34;101244.00;4980726;28;20041;-42
2023/04/28 02:43:27;;;;;;;16.05;8.20;;;;;;;14.22;41.38;101246.66;4983835;28;20065;-43
2023/04/28 02:45:53;;;;;;;14.25;7.93;;;;;;;13.78;41.93;101241.22;4980171;28;20046;-41
2023/04/28 02:48:19;;;;;;;15.40;7.47;;;;;;;13.51;42.48;101236.66;4983366;28;20030;-43
2023/04/28 02:50:48;;;;;;;16.42;8.38;;;;;;;13.68;42.36;101231.50;4984322;28;20057;-40
2023/04/28 02:53:13;;;;;;;15.27;8.10;;;;;;;13.71;42.02;101237.66;4980892;28;20080;-41
2023/04/28 02:55:38;;;;;;;14.35;7.90;;;;;;;13.87;42.24;101230.75;4983675;28;20083;-43
2023/04/28 02:58:04;;;;;;;14.43;7.90;;;;;;;13.54;42.29;101233.19;4981258;28;20061;-41
2023/04/28 03:00:29;;;;;;;15.13;8.32;;;;;;;13.88;41.73;101222.03;4985169;28;20108;-41
2023/04/28 03:02:54;;;;;;;14.18;7.65;;;;;;;14.08;41.35;101227.38;4980837;28;20042;-42
2023/04/28 03:05:20;;;;;;;17.02;7.95;;;;;;;13.55;42.51;101225.31;4983112;28;20042;-41
2023/04/28 03:07:45;;;;;;;15.05;8.18;;;;;;;13.72;41.52;101214.97;4983713;28;20030;-44
2023/04/28 03:10:11;;;;;;;15.13;8.07;;;;;;;13.93;41.79;101216.81;4979964;28;20058;-42
2023/04/28 03:12:36;;;;;;;13.90;7.88;;;;;;;13.96;41.77;101216.84;4981533;28;20493;-41
2023/04/28 03:15:02;;;;;;;15.38;7.93;;;;;;;13.79;41.76;101204.50;4980249;28;20496;-42
2023/04/28 03:17:27;;;;;;;15.02;8.10;;;;;;;13.79;42.08;101206.25;4983522;28;20049;-42
2023/04/28 03:19:52;;;;;;;14.75;7.70;;;;;;;13.93;41.79;101199.34;4981074;28;20062;-44
2023/04/28 03:22:18;;;;;;;16.40;8.00;;;;;;;14.08;41.48;101199.44;4984012;28;20042;-42
2023/04/28 03:24:43;;;;;;;14.55;7.35;;;;;;;13.91;41.78;101195.81;4983277;28;20146;-42
2023/04/28 03:27:09;;;;;;;14.32;8.25;;;;;;;13.83;41.75;101189.69;4981884;28;20058;-43
2023/04/28 03:29:34;;;;;;;14.73;7.65;;;;;;;13.63;42.26;101183.47;4986809;28;20516;-45
2023/04/28 03:32:00;;;;;;;17.50;7.82;;;;;;;13.30;43.13;101181.47;4982364;28;20077;-44
2023/04/28 03:34:25;;;;;;;14.13;7.28;;;;;;;13.54;42.97;101186.03;4982781;28;20046;-39
2023/04/28 03:36:50;;;;;;;14.30;8.05;;;;;;;13.64;42.85;101178.22;4982917;28;20100;-43
2023/04/28 03:39:16;;;;;;;13.55;7.68;;;;;;;13.67;42.79;101179.97;4979059;28;20089;-42
2023/04/28 03:41:41;;;;;;;15.38;7.78;;;;;;;13.82;42.50;101175.72;4982661;28;20061;-43
2023/04/28 03:44:06;;;;;;;14.38;7.63;;;;;;;13.37;43.58;101181.53;4979227;28;20042;-40
2023/04/28 03:46:33;;;;;;;14.13;7.35;;;;;;;13.89;42.66;101180.97;4983031;28;20147;-43
2023/04/28 03:49:01;;;;;;;14.95;7.70;;;;;;;13.68;43.53;101169.50;4979086;28;20062;-41
2023/04/28 03:51:27;;;;;;;12.80;7.38;;;;;;;13.18;44.18;101158.72;4982539;28;20069;-42
2023/04/28 03:53:52;;;;;;;15.02;7.80;;;;;;;13.86;42.87;101144.25;4979859;28;20065;-39
2023/04/28 03:56:17;;;;;;;14.02;8.20;;;;;;;13.68;43.48;101145.06;4983064;28;20033;-45
2023/04/28 03:58:42;;;;;;;13.52;7.93;;;;;;;13.78;43.32;101141.63;4981346;28;20481;-42
2023/04/28 04:01:08;;;;;;;18.55;7.78;;;;;;;14.21;42.64;101146.13;4978809;28;20038;-44
2023/04/28 04:03:33;;;;;;;15.63;7.93;;;;;;;14.00;43.34;101132.09;4982436;28;20045;-43
2023/04/28 04:05:58;;;;;;;15.40;7.82;;;;;;;13.78;43.26;101126.75;4978960;28;20092;-42
2023/04/28 04:08:24;;;;;;;15.63;8.43;;;;;;;13.89;43.22;101124.19;4985441;28;20039;-43
2023/04/28 04:10:50;;;;;;;17.13;8.27;;;;;;;14.05;42.75;101135.59;4985935;28;20100;-43
2023/04/28 04:13:15;;;;;;;14.10;8.38;;;;;;;13.93;42.79;101125.94;4983388;28;20176;-38
2023/04/28 04:15:40;;;;;;;13.57;7.95;;;;;;;13.88;42.94;101132.06;4987369;28;20041;-43
2023/04/28 04:18:06;;;;;;;14.27;7.95;;;;;;;14.28;42.42;101130.41;4983974;28;20138;-40
2023/04/28 04:20:31;;;;;;;14.30;8.63;;;;;;;14.39;42.15;101134.88;4986614;28;20041;-41
2023/04/28 04:22:56;;;;;;;15.13;8.43;;;;;;;14.47;42.07;101141.00;4982765;28;20761;-46
2023/04/28 04:25:22;;;;;;;14.82;8.70;;;;;;;14.03;42.58;101135.59;4986135;28;20042;-41
2023/04/28 04:27:47;;;;;;;16.85;8.05;;;;;;;14.07;43.10;101136.50;4985915;28;20054;-39
2023/04/28 04:30:13;;;;;;;18.38;8.68;;;;;;;13.91;43.43;101140.78;4983091;28;20034;-41
2023/04/28 04:32:38;;;;;;;14.52;8.48;;;;;;;14.17;42.95;101159.25;4987295;28;20065;-44
2023/04/28 04:35:04;;;;;;;15.70;8.63;;;;;;;13.98;44.32;101141.69;4982679;28;20408;-41
2023/04/28 04:37:29;;;;;;;16.23;8.50;;;;;;;14.28;44.20;101152.28;4986460;28;20404;-43
2023/04/28 04:39:55;;;;;;;18.58;9.05;;;;;;;14.27;45.50;101152.28;4982347;28;20050;-41
2023/04/28 04:42:20;;;;;;;13.93;8.60;;;;;;;14.25;46.73;101157.53;4986093;28;20382;-44
2023/04/28 04:44:45;;;;;;;18.70;9.20;;;;;;;14.16;46.76;101154.84;4989119;28;20058;-44
2023/04/28 04:47:10;;;;;;;15.27;9.20;;;;;;;13.99;47.66;101148.69;4989242;28;20101;-43
2023/04/28 04:49:36;;;;;;;30.40;19.88;;;;;;;14.05;48.40;101146.97;4990916;28;20094;-46
2023/04/28 04:52:02;;;;;;;17.27;10.75;;;;;;;13.65;49.84;101148.56;4986128;28;20035;-43
2023/04/28 04:54:29;;;;;;;15.93;9.52;;;;;;;13.75;50.81;101146.84;4990435;28;20121;-41
2023/04/28 04:56:54;;;;;;;18.67;9.98;;;;;;;13.47;51.54;101132.72;4982808;28;20395;-40
2023/04/28 04:59:20;;;;;;;16.92;9.52;;;;;;;13.16;51.73;101129.06;4984835;28;20073;-40
2023/04/28 05:01:45;;;;;;;17.33;10.00;;;;;;;13.62;50.77;101124.06;4985533;28;20046;-42
2023/04/28 05:04:10;;;;;;;16.63;9.40;;;;;;;13.65;51.36;101114.50;4981715;28;20057;-44
2023/04/28 05:06:36;;;;;;;17.08;9.77;;;;;;;13.58;51.12;101122.31;4984529;28;20106;-41
2023/04/28 05:09:01;;;;;;;17.23;9.60;;;;;;;13.70;50.78;101119.75;4983153;28;20065;-41
2023/04/28 05:11:26;;;;;;;16.50;9.95;;;;;;;13.46;51.86;101122.25;4985950;28;20030;-42
2023/04/28 05:13:52;;;;;;;15.43;9.90;;;;;;;13.48;51.75;101110.88;4982533;28;20034;-43
2023/04/28 05:16:17;;;;;;;19.15;10.07;;;;;;;13.16;53.76;101113.34;4985396;28;20128;-43
2023/04/28 05:18:42;;;;;;;19.08;10.02;;;;;;;13.17;54.46;101102.00;4985429;28;20034;-41
2023/04/28 05:21:10;;;;;;;24.88;11.05;;;;;;;13.28;54.72;101095.09;4981902;28;20469;-40
2023/04/28 05:23:35;;;;;;;21.30;11.18;;;;;;;13.58;54.36;101098.72;4985624;28;20034;-42
2023/04/28 05:26:02;;;;;;;18.73;11.27;;;;;;;13.15;55.54;101106.34;4983190;28;20041;-42
2023/04/28 05:28:28;;;;;;;21.13;11.15;;;;;;;13.02;56.22;101094.00;4986906;28;20041;-45
2023/04/28 05:30:53;;;;;;;20.58;10.98;;;;;;;12.62;57.96;101095.44;4985980;28;20042;-42
2023/04/28 05:33:18;;;;;;;21.13;11.43;;;;;;;12.83;57.93;101089.50;4992339;28;20413;-41
2023/04/28 05:35:44;;;;;;;19.27;11.05;;;;;;;12.69;58.22;101086.75;4992874;28;20046;-41
2023/04/28 05:38:09;;;;;;;19.90;11.10;;;;;;;12.76;58.02;101082.47;4986656;28;20116;-37
2023/04/28 05:40:35;;;;;;;19.50;11.60;;;;;;;12.65;58.56;101071.91;4988222;28;20117;-40
2023/04/28 05:43:00;;;;;;;19.27;11.43;;;;;;;12.61;58.66;101080.63;4985671;28;20060;-40
2023/04/28 05:45:25;;;;;;;18.88;11.40;;;;;;;12.91;57.72;101078.25;4997125;28;20056;-44
2023/04/28 05:47:51;;;;;;;19.10;11.25;;;;;;;13.09;57.57;101081.84;4997106;28;20049;-43
2023/04/28 05:50:16;;;;;;;16.92;10.80;;;;;;;13.18;57.13;101093.25;4993585;28;20437;-42
2023/04/28 05:52:41;;;;;;;20.42;12.05;;;;;;;13.31;56.64;101091.59;4985940;28;20030;-44
2023/04/28 05:55:07;;;;;;;19.50;11.30;;;;;;;13.18;56.73;101105.47;4982153;28;20030;-42
2023/04/28 05:57:33;;;;;;;19.10;11.48;;;;;;;13.40;56.60;101104.75;4985877;28;20034;-43
2023/04/28 05:59:58;;;;;;;20.60;11.73;;;;;;;12.75;57.23;101101.63;4981570;28;20038;-41
2023/04/28 06:02:23;;;;;;;19.50;11.75;;;;;;;13.15;56.81;101089.75;4985195;28;20118;-43
2023/04/28 06:04:49;;;;;;;21.25;11.98;;;;;;;13.46;56.31;101090.81;4985091;28;20038;-41
2023/04/28 06:07:14;;;;;;;19.77;11.63;;;;;;;13.54;55.95;101084.72;4981460;28;20378;-42
2023/04/28 06:09:40;;;;;;;19.23;11.70;;;;;;;13.24;56.55;101090.69;4984820;28;20448;-43
2023/04/28 06:12:05;;;;;;;20.13;11.82;;;;;;;13.52;56.05;101094.34;4981882;28;20041;-40
2023/04/28 06:14:31;;;;;;;19.63;11.85;;;;;;;13.60;55.87;101090.00;4985311;28;20034;-40
2023/04/28 06:16:56;;;;;;;20.13;12.23;;;;;;;13.52;56.73;101101.31;4980622;28;20031;-41
2023/04/28 06:19:22;;;;;;;19.10;12.13;;;;;;;13.67;56.43;101096.13;4984683;28;20038;-40
2023/04/28 06:21:50;;;;;;;20.05;12.30;;;;;;;13.46;57.75;101098.66;4985160;28;20034;-44
2023/04/28 06:24:15;;;;;;;21.00;12.07;;;;;;;13.51;57.69;101092.59;4981114;28;20054;-43
2023/04/28 06:26:41;;;;;;;23.50;12.48;;;;;;;13.00;59.56;101082.63;4984543;28;20043;-42
2023/04/28 06:29:06;;;;;;;22.15;12.23;;;;;;;13.06;60.09;101069.59;4980784;28;20030;-44
2023/04/28 06:31:31;;;;;;;20.60;12.27;;;;;;;12.70;61.84;101066.72;4985217;28;20053;-42
2023/04/28 06:33:57;;;;;;;18.40;11.65;;;;;;;12.67;62.44;101058.88;4981797;28;20030;-46
2023/04/28 06:36:22;;;;;;;19.67;11.95;;;;;;;13.28;61.39;101063.66;4985339;28;20100;-44
2023/04/28 06:38:47;;;;;;;18.83;11.80;;;;;;;13.32;61.58;101052.34;4985466;28;20088;-42
2023/04/28 06:41:13;;;;;;;18.80;11.85;;;;;;;13.56;61.38;101053.31;4981468;28;20030;-41
2023/04/28 06:43:38;;;;;;;21.40;11.82;;;;;;;13.85;60.66;101056.03;4985861;28;20037;-41
2023/04/28 06:46:04;;;;;;;19.33;11.30;;;;;;;14.48;59.55;101066.66;4982277;28;20513;-44
2023/04/28 06:48:29;;;;;;;21.63;12.15;;;;;;;14.93;58.08;101065.78;4985234;28;20106;-44
2023/04/28 06:50:54;;;;;;;24.15;12.85;;;;;;;15.03;56.98;101074.50;4981098;28;20468;-43
2023/04/28 06:53:20;;;;;;;22.95;13.85;;;;;;;14.80;57.06;101065.78;4985739;28;20038;-45
2023/04/28 06:55:45;;;;;;;23.20;14.13;;;;;;;14.95;56.67;101064.00;4986340;28;20034;-40
2023/04/28 06:58:11;;;;;;;22.67;13.75;;;;;;;14.81;57.16;101070.16;4982315;28;20042;-41
2023/04/28 07:00:36;;;;;;;26.65;14.52;;;;;;;14.93;57.08;101059.66;4986142;28;20026;-43
2023/04/28 07:03:01;;;;;;;22.15;14.15;;;;;;;14.31;59.11;101072.75;4983006;28;20592;-41
2023/04/28 07:05:27;;;;;;;26.63;14.60;;;;;;;14.33;60.19;101073.63;4983891;28;20030;-41
2023/04/28 07:07:53;;;;;;;24.83;14.50;;;;;;;14.05;61.40;101081.44;4983032;28;20101;-41
2023/04/28 07:10:18;;;;;;;23.25;14.45;;;;;;;13.98;62.13;101078.78;4985750;28;20126;-42
2023/04/28 07:12:44;;;;;;;21.67;13.70;;;;;;;14.55;60.86;101083.28;4989792;28;20034;-45
2023/04/28 07:15:10;;;;;;;23.20;14.00;;;;;;;14.73;60.43;101069.28;4986604;28;20146;-42
2023/04/28 07:17:35;;;;;;;22.73;14.13;;;;;;;14.34;61.73;101073.59;4989775;28;20030;-41
2023/04/28 07:20:00;;;;;;;22.17;14.00;;;;;;;14.77;60.55;101074.53;4982007;28;20090;-40
2023/04/28 07:22:26;;;;;;;22.40;13.60;;;;;;;14.58;61.50;101072.78;4985066;28;20118;-42
2023/04/28 07:24:51;;;;;;;21.33;13.55;;;;;;;14.89;60.72;101073.63;4979845;28;20027;-41
2023/04/28 07:27:17;;;;;;;24.42;13.77;;;;;;;15.03;60.49;101077.13;4985345;28;20133;-40
2023/04/28 07:29:42;;;;;;;21.75;13.75;;;;;;;14.93;60.41;101075.41;4983396;28;20497;-43
2023/04/28 07:32:09;;;;;;;21.95;13.75;;;;;;;14.90;61.50;101075.41;4980957;28;20681;-42
2023/04/28 07:34:35;;;;;;;25.73;14.32;;;;;;;15.06;61.18;101076.25;4989046;28;20033;-42
2023/04/28 07:37:01;;;;;;;23.10;14.15;;;;;;;15.10;61.92;101071.00;4988155;28;20034;-42
2023/04/28 07:39:27;;;;;;;21.92;14.13;;;;;;;15.29;61.64;101072.72;4990601;28;20022;-43
2023/04/28 07:41:52;;;;;;;20.33;14.00;;;;;;;15.62;60.66;101063.84;4987666;28;20472;-43
2023/04/28 07:44:18;;;;;;;22.90;14.32;;;;;;;15.39;61.44;101070.91;4990332;28;20042;-41
2023/04/28 07:46:43;;;;;;;24.98;14.52;;;;;;;15.70;60.63;101067.31;4988795;28;20085;-42
2023/04/28 07:49:08;;;;;;;23.65;15.38;;;;;;;15.27;62.19;101063.06;4985514;28;20038;-41
2023/04/28 07:51:34;;;;;;;23.98;14.57;;;;;;;16.01;61.03;101065.41;4988140;28;20614;-40
2023/04/28 07:53:59;;;;;;;26.02;15.48;;;;;;;16.47;59.54;101062.47;4982993;28;20062;-41
2023/04/28 07:56:25;;;;;;;23.35;15.27;;;;;;;16.73;59.00;101059.66;4987673;28;20026;-42
2023/04/28 07:58:51;;;;;;;28.10;16.63;;;;;;;16.89;58.71;101054.25;4983928;28;20039;-42
2023/04/28 08:01:16;;;;;;;27.73;17.25;;;;;;;16.90;58.96;101053.34;4982910;28;20080;-41
2023/04/28 08:03:41;;;;;;;29.42;17.70;;;;;;;17.07;58.58;101061.09;4991422;28;20098;-46
2023/04/28 08:06:07;;;;;;;30.73;17.67;;;;;;;16.81;59.08;101063.09;4984555;28;20046;-41
2023/04/28 08:08:33;;;;;;;26.95;17.95;;;;;;;16.90;58.70;101065.63;4984195;28;20493;-40
2023/04/28 08:10:59;;;;;;;27.88;17.88;;;;;;;16.67;59.44;101057.94;4979255;28;20570;-40
2023/04/28 08:13:25;;;;;;;27.52;18.02;;;;;;;16.56;60.60;101058.00;4984893;28;20026;-41
2023/04/28 08:15:51;;;;;;;27.98;17.92;;;;;;;16.74;60.67;101064.91;4989347;28;20074;-43
2023/04/28 08:18:16;;;;;;;26.27;18.13;;;;;;;16.83;61.13;101063.97;4986389;28;20032;-41
2023/04/28 08:20:41;;;;;;;32.53;19.33;;;;;;;17.00;60.97;101065.56;4988791;28;20042;-40
2023/04/28 08:23:08;;;;;;;29.88;18.80;;;;;;;17.10;61.14;101063.69;4998405;23;20046;-44
2023/04/28 08:25:34;;;;;;;29.88;18.08;;;;;;;17.30;60.56;101059.09;4982894;28;20582;-41
2023/04/28 08:27:59;;;;;;;26.25;17.23;;;;;;;17.27;60.84;101059.09;4979555;28;20038;-43
2023/04/28 08:30:25;;;;;;;28.27;17.52;;;;;;;17.35;61.19;101056.38;4982533;28;20092;-43
2023/04/28 08:32:51;;;;;;;26.13;18.02;;;;;;;17.46;61.47;101054.50;4982667;28;20119;-44
2023/04/28 08:35:16;;;;;;;24.52;16.85;;;;;;;17.54;61.01;101051.78;4978490;28;20030;-45
2023/04/28 08:37:42;;;;;;;25.23;16.98;;;;;;;17.62;60.69;101049.97;4983433;28;20093;-44
2023/04/28 08:40:10;;;;;;;26.35;17.20;;;;;;;17.63;61.07;101054.31;4978185;28;20042;-45
2023/04/28 08:42:37;;;;;;;24.65;16.52;;;;;;;17.83;60.67;101049.66;4982782;28;20034;-43
2023/04/28 08:45:04;;;;;;;25.05;17.60;;;;;;;17.69;61.09;101048.97;4979538;28;20035;-43
2023/04/28 08:47:33;;;;;;;26.27;17.58;;;;;;;17.59;61.94;101048.19;4982611;28;20030;-43
2023/04/28 08:50:05;;;;;;;26.15;17.83;;;;;;;17.53;62.55;101050.91;4981668;28;20038;-43
2023/04/28 08:52:31;;;;;;;23.85;17.23;;;;;;;17.75;62.27;101052.38;4983590;28;20030;-43
2023/04/28 08:54:58;;;;;;;24.88;17.70;;;;;;;17.60;62.44;101044.69;4983598;28;20034;-44
2023/04/28 08:57:26;;;;;;;24.92;17.67;;;;;;;17.70;62.69;101050.72;4987003;28;20034;-45
2023/04/28 08:59:52;;;;;;;25.48;18.17;;;;;;;17.60;63.41;101049.97;4984915;28;20133;-43
2023/04/28 09:02:18;;;;;;;27.25;18.58;;;;;;;17.56;63.27;101044.72;4985982;28;20560;-43
2023/04/28 09:04:46;;;;;;;25.92;18.35;;;;;;;17.44;64.27;101043.13;4986160;28;20113;-44
2023/04/28 09:07:12;;;;;;;27.80;18.85;;;;;;;17.68;63.78;101040.22;4982857;28;20397;-42
2023/04/28 09:09:39;;;;;;;26.10;18.33;;;;;;;17.88;63.83;101041.69;4985739;28;20098;-41
2023/04/28 09:12:04;;;;;;;27.40;18.80;;;;;;;18.03;62.90;101031.78;4982089;28;20038;-43
2023/04/28 09:14:31;;;;;;;26.35;19.27;;;;;;;17.63;63.06;101039.38;4987270;28;20489;-43
2023/04/28 09:16:57;;;;;;;30.13;20.25;;;;;;;18.01;62.97;101032.69;4983730;28;20037;-42
2023/04/28 09:19:23;;;;;;;30.58;20.50;;;;;;;17.92;63.38;101038.13;4986216;28;20026;-42
2023/04/28 09:21:55;;;;;;;30.08;21.27;;;;;;;18.02;63.16;101031.81;4986182;28;20038;-44
2023/04/28 09:24:30;;;;;;;28.40;20.50;;;;;;;18.38;62.81;101030.38;4983954;28;20116;-42
2023/04/28 09:26:56;;;;;;;31.80;22.00;;;;;;;18.04;62.93;101024.75;4985273;28;20038;-46
2023/04/28 09:29:21;;;;;;;30.77;22.20;;;;;;;18.34;62.59;101024.28;4988739;28;20034;-44
2023/04/28 09:31:47;;;;;;;32.75;22.88;;;;;;;18.00;63.16;101029.19;4987811;28;20030;-44
2023/04/28 09:34:12;;;;;;;30.08;21.65;;;;;;;18.11;63.21;101019.34;4984168;28;20949;-44
2023/04/28 09:36:38;;;;;;;29.38;21.40;;;;;;;18.21;62.70;101020.09;4987612;28;20468;-42
2023/04/28 09:39:03;;;;;;;29.52;21.40;;;;;;;18.16;63.37;101035.13;4986876;28;20089;-40
2023/04/28 09:41:39;;;;;;;28.52;19.77;;;;;;;18.46;63.08;101021.44;4989533;28;20118;-42
2023/04/28 09:44:10;;;;;;;24.83;18.30;;;;;;;18.25;63.69;101019.13;4988027;28;20042;-45
2023/04/28 09:46:35;;;;;;;26.27;18.73;;;;;;;18.08;64.12;101022.03;4988108;28;20034;-40
2023/04/28 09:49:01;;;;;;;22.58;16.83;;;;;;;18.18;64.79;101021.00;4984742;28;20117;-43
2023/04/28 09:51:27;;;;;;;19.35;13.90;;;;;;;17.91;65.22;101023.19;4989271;28;20058;-43
2023/04/28 09:53:54;;;;;;;15.70;12.40;;;;;;;17.88;65.92;101028.50;4988014;28;20050;-42
2023/04/28 09:56:21;;;;;;;16.17;11.27;;;;;;;17.57;67.00;101028.00;4982878;28;20121;-42
2023/04/28 09:58:49;;;;;;;11.35;8.63;;;;;;;17.78;66.09;101030.41;4985958;28;20034;-42
2023/04/28 10:01:15;;;;;;;10.38;8.13;;;;;;;17.36;66.94;101037.06;4979923;28;20046;-44
2023/04/28 10:03:43;;;;;;;8.80;6.20;;;;;;;17.47;67.54;101034.28;4984977;28;20076;-42
2023/04/28 10:06:08;;;;;;;6.57;4.95;;;;;;;17.51;67.80;101033.34;4979682;28;20547;-43
2023/04/28 10:08:34;;;;;;;6.28;4.15;;;;;;;17.66;66.92;101039.34;4983189;28;20121;-43
2023/04/28 10:11:00;;;;;;;6.80;4.45;;;;;;;17.01;68.72;101034.81;4981924;28;20081;-43
2023/04/28 10:13:26;;;;;;;7.18;4.85;;;;;;;16.92;69.78;101038.41;4983557;28;20457;-41
2023/04/28 10:15:56;;;;;;;7.10;4.60;;;;;;;16.97;70.03;101043.63;4979644;28;20030;-45
2023/04/28 10:18:23;;;;;;;7.68;4.55;;;;;;;17.04;69.96;101042.69;4986249;28;20023;-42
2023/04/28 10:20:52;;;;;;;7.15;4.38;;;;;;;17.33;69.74;101045.84;4985886;28;20093;-43
2023/04/28 10:23:45;;;;;;;6.15;3.95;;;;;;;17.72;68.35;101044.53;4982017;28;20287;-42
2023/04/28 10:26:13;;;;;;;5.50;3.40;;;;;;;17.78;68.04;101047.09;4982730;28;20038;-41
2023/04/28 10:28:50;;;;;;;5.88;3.13;;;;;;;17.39;68.83;101043.16;4987204;28;20065;-42
2023/04/28 10:31:19;;;;;;;6.70;3.20;;;;;;;17.72;68.07;101048.94;4983892;28;20038;-41
2023/04/28 10:33:45;;;;;;;6.70;3.40;;;;;;;17.62;68.08;101056.09;4986730;28;20106;-42
2023/04/28 10:36:53;;;;;;;6.20;3.40;;;;;;;17.30;69.53;101055.56;4984286;28;22132;-42
2023/04/28 10:39:18;;;;;;;6.03;3.45;;;;;;;17.44;70.09;101059.78;4984563;28;20445;-41
2023/04/28 10:41:47;;;;;;;7.38;3.65;;;;;;;17.34;69.60;101062.53;4986816;28;20088;-41
2023/04/28 10:44:42;;;;;;;6.72;3.35;;;;;;;17.43;70.29;101060.69;4981874;28;20034;-41
2023/04/28 10:47:08;;;;;;;8.38;3.75;;;;;;;17.14;70.72;101062.75;4952292;28;20030;-39
2023/04/28 10:50:00;;;;;;;8.05;3.80;;;;;;;17.20;70.63;101065.31;4985842;28;20030;-42
2023/04/28 10:52:41;;;;;;;8.93;4.20;;;;;;;16.91;72.52;101064.75;4981001;28;20416;-42
2023/04/28 10:55:31;;;;;;;6.85;4.00;;;;;;;17.28;71.18;101062.63;4981444;28;20038;-42
2023/04/28 10:58:15;;;;;;;8.15;4.07;;;;;;;16.86;71.50;101063.94;4979408;28;20488;-42
2023/04/28 11:00:41;;;;;;;6.90;3.87;;;;;;;17.08;71.73;101064.59;4983898;28;20129;-43
2023/04/28 11:03:07;;;;;;;7.80;4.30;;;;;;;16.94;72.01;101065.63;4980383;28;20301;-43
2023/04/28 11:05:36;;;;;;;8.77;4.32;;;;;;;16.45;73.07;101065.13;4984828;28;20035;-41
2023/04/28 11:08:29;;;;;;;7.68;4.32;;;;;;;16.80;72.29;101062.22;4981203;28;20030;-41
2023/04/28 11:11:10;;;;;;;6.82;4.18;;;;;;;16.65;72.71;101066.75;4981051;28;20038;-40